sensor_id;sensor_type;location;lat;lon;timestamp;P1;durP1;ratioP1;P2;durP2;ratioP2
27039;SDS011;14589;51.578;7.306;2022-10-31T00:02:18;9.63;;;5.22;;
27039;SDS011;14589;51.578;7.306;2022-10-31T00:04:58;11.70;;;6.68;;
27039;SDS011;14589;51.578;7.306;2022-10-31T00:07:23;12.70;;;6.53;;
27039;SDS011;14589;51.578;7.306;2022-10-31T00:09:48;11.95;;;5.57;;
27039;SDS011;14589;51.578;7.306;2022-10-31T00:12:14;9.40;;;5.47;;
27039;SDS011;14589;51.578;7.306;2022-10-31T00:14:39;7.78;;;5.05;;
27039;SDS011;14589;51.578;7.306;2022-10-31T00:17:05;9.05;;;5.97;;
27039;SDS011;14589;51.578;7.306;2022-10-31T00:19:30;8.68;;;5.13;;
27039;SDS011;14589;51.578;7.306;2022-10-31T00:21:55;10.07;;;5.57;;
27039;SDS011;14589;51.578;7.306;2022-10-31T00:24:22;7.65;;;5.05;;
27039;SDS011;14589;51.578;7.306;2022-10-31T00:26:50;9.38;;;5.47;;
27039;SDS011;14589;51.578;7.306;2022-10-31T00:29:15;7.80;;;5.00;;
27039;SDS011;14589;51.578;7.306;2022-10-31T00:31:40;11.85;;;5.40;;
27039;SDS011;14589;51.578;7.306;2022-10-31T00:34:06;9.20;;;5.80;;
27039;SDS011;14589;51.578;7.306;2022-10-31T00:36:36;13.75;;;5.63;;
27039;SDS011;14589;51.578;7.306;2022-10-31T00:39:02;12.32;;;6.07;;
27039;SDS011;14589;51.578;7.306;2022-10-31T00:41:27;10.50;;;5.85;;
27039;SDS011;14589;51.578;7.306;2022-10-31T00:43:54;13.02;;;6.50;;
27039;SDS011;14589;51.578;7.306;2022-10-31T00:46:20;11.93;;;6.70;;
27039;SDS011;14589;51.578;7.306;2022-10-31T00:48:46;11.23;;;6.10;;
27039;SDS011;14589;51.578;7.306;2022-10-31T00:51:11;11.60;;;6.57;;
27039;SDS011;14589;51.578;7.306;2022-10-31T00:53:42;13.27;;;6.78;;
27039;SDS011;14589;51.578;7.306;2022-10-31T00:56:08;12.32;;;6.28;;
27039;SDS011;14589;51.578;7.306;2022-10-31T00:58:34;12.80;;;7.13;;
27039;SDS011;14589;51.578;7.306;2022-10-31T01:01:00;16.95;;;8.38;;
27039;SDS011;14589;51.578;7.306;2022-10-31T01:03:27;17.70;;;7.85;;
27039;SDS011;14589;51.578;7.306;2022-10-31T01:08:31;12.80;;;6.90;;
27039;SDS011;14589;51.578;7.306;2022-10-31T01:13:31;12.57;;;6.40;;
27039;SDS011;14589;51.578;7.306;2022-10-31T01:16:00;14.32;;;6.75;;
27039;SDS011;14589;51.578;7.306;2022-10-31T01:18:26;17.00;;;8.25;;
27039;SDS011;14589;51.578;7.306;2022-10-31T01:21:02;13.05;;;7.28;;
27039;SDS011;14589;51.578;7.306;2022-10-31T01:23:28;14.35;;;7.35;;
27039;SDS011;14589;51.578;7.306;2022-10-31T01:26:01;13.38;;;6.82;;
27039;SDS011;14589;51.578;7.306;2022-10-31T01:30:53;12.23;;;6.32;;
27039;SDS011;14589;51.578;7.306;2022-10-31T01:33:19;11.13;;;6.28;;
27039;SDS011;14589;51.578;7.306;2022-10-31T01:35:45;13.52;;;6.40;;
27039;SDS011;14589;51.578;7.306;2022-10-31T01:38:13;14.75;;;7.30;;
27039;SDS011;14589;51.578;7.306;2022-10-31T01:40:42;16.55;;;7.10;;
27039;SDS011;14589;51.578;7.306;2022-10-31T01:43:17;9.65;;;6.07;;
27039;SDS011;14589;51.578;7.306;2022-10-31T01:45:43;12.93;;;6.97;;
27039;SDS011;14589;51.578;7.306;2022-10-31T01:48:16;14.98;;;7.18;;
27039;SDS011;14589;51.578;7.306;2022-10-31T01:50:45;13.00;;;6.32;;
27039;SDS011;14589;51.578;7.306;2022-10-31T01:53:12;13.85;;;5.45;;
27039;SDS011;14589;51.578;7.306;2022-10-31T01:55:39;11.70;;;6.38;;
27039;SDS011;14589;51.578;7.306;2022-10-31T01:58:15;16.10;;;5.60;;
27039;SDS011;14589;51.578;7.306;2022-10-31T02:00:45;10.07;;;5.57;;
27039;SDS011;14589;51.578;7.306;2022-10-31T02:03:12;12.70;;;5.80;;
27039;SDS011;14589;51.578;7.306;2022-10-31T02:05:37;11.80;;;5.78;;
27039;SDS011;14589;51.578;7.306;2022-10-31T02:08:23;12.35;;;6.38;;
27039;SDS011;14589;51.578;7.306;2022-10-31T02:10:52;11.10;;;6.05;;
27039;SDS011;14589;51.578;7.306;2022-10-31T02:13:18;8.80;;;5.15;;
27039;SDS011;14589;51.578;7.306;2022-10-31T02:15:47;8.00;;;5.05;;
27039;SDS011;14589;51.578;7.306;2022-10-31T02:18:17;10.82;;;5.60;;
27039;SDS011;14589;51.578;7.306;2022-10-31T02:21:04;9.55;;;6.18;;
27039;SDS011;14589;51.578;7.306;2022-10-31T02:31:41;10.00;;;5.18;;
27039;SDS011;14589;51.578;7.306;2022-10-31T02:34:33;10.20;;;4.90;;
27039;SDS011;14589;51.578;7.306;2022-10-31T02:40:10;9.25;;;5.50;;
27039;SDS011;14589;51.578;7.306;2022-10-31T02:45:35;8.90;;;4.90;;
27039;SDS011;14589;51.578;7.306;2022-10-31T02:48:04;8.98;;;4.85;;
27039;SDS011;14589;51.578;7.306;2022-10-31T02:53:05;9.40;;;5.18;;
27039;SDS011;14589;51.578;7.306;2022-10-31T03:00:40;7.82;;;4.10;;
27039;SDS011;14589;51.578;7.306;2022-10-31T03:03:15;10.70;;;5.10;;
27039;SDS011;14589;51.578;7.306;2022-10-31T03:08:34;7.68;;;4.72;;
27039;SDS011;14589;51.578;7.306;2022-10-31T03:11:04;14.80;;;7.80;;
27039;SDS011;14589;51.578;7.306;2022-10-31T03:13:51;13.63;;;6.72;;
27039;SDS011;14589;51.578;7.306;2022-10-31T03:19:15;11.02;;;6.60;;
27039;SDS011;14589;51.578;7.306;2022-10-31T03:21:51;12.00;;;6.95;;
27039;SDS011;14589;51.578;7.306;2022-10-31T03:24:21;18.25;;;7.00;;
27039;SDS011;14589;51.578;7.306;2022-10-31T03:26:49;16.75;;;7.00;;
27039;SDS011;14589;51.578;7.306;2022-10-31T03:29:18;10.45;;;6.10;;
27039;SDS011;14589;51.578;7.306;2022-10-31T03:32:00;15.63;;;6.50;;
27039;SDS011;14589;51.578;7.306;2022-10-31T03:34:28;10.27;;;5.68;;
27039;SDS011;14589;51.578;7.306;2022-10-31T03:36:56;9.60;;;5.60;;
27039;SDS011;14589;51.578;7.306;2022-10-31T03:39:22;15.02;;;6.00;;
27039;SDS011;14589;51.578;7.306;2022-10-31T03:42:00;8.80;;;5.38;;
27039;SDS011;14589;51.578;7.306;2022-10-31T03:44:29;7.88;;;4.57;;
27039;SDS011;14589;51.578;7.306;2022-10-31T03:47:01;9.15;;;5.45;;
27039;SDS011;14589;51.578;7.306;2022-10-31T03:49:29;12.77;;;5.28;;
27039;SDS011;14589;51.578;7.306;2022-10-31T03:59:51;10.68;;;5.32;;
27039;SDS011;14589;51.578;7.306;2022-10-31T04:02:21;7.32;;;4.45;;
27039;SDS011;14589;51.578;7.306;2022-10-31T04:04:49;11.25;;;5.45;;
27039;SDS011;14589;51.578;7.306;2022-10-31T04:07:14;9.50;;;5.03;;
27039;SDS011;14589;51.578;7.306;2022-10-31T04:09:41;10.63;;;5.03;;
27039;SDS011;14589;51.578;7.306;2022-10-31T04:12:10;9.40;;;5.50;;
27039;SDS011;14589;51.578;7.306;2022-10-31T04:14:40;11.02;;;5.22;;
27039;SDS011;14589;51.578;7.306;2022-10-31T04:17:08;9.57;;;4.97;;
27039;SDS011;14589;51.578;7.306;2022-10-31T04:19:39;11.60;;;5.97;;
27039;SDS011;14589;51.578;7.306;2022-10-31T04:22:06;9.30;;;5.20;;
27039;SDS011;14589;51.578;7.306;2022-10-31T04:24:31;9.80;;;5.25;;
27039;SDS011;14589;51.578;7.306;2022-10-31T04:26:57;8.98;;;4.95;;
27039;SDS011;14589;51.578;7.306;2022-10-31T04:29:27;10.40;;;5.22;;
27039;SDS011;14589;51.578;7.306;2022-10-31T04:31:57;9.18;;;4.75;;
27039;SDS011;14589;51.578;7.306;2022-10-31T04:34:26;9.43;;;4.68;;
27039;SDS011;14589;51.578;7.306;2022-10-31T04:36:53;6.63;;;4.55;;
27039;SDS011;14589;51.578;7.306;2022-10-31T04:39:20;9.40;;;4.97;;
27039;SDS011;14589;51.578;7.306;2022-10-31T04:41:55;7.85;;;4.97;;
27039;SDS011;14589;51.578;7.306;2022-10-31T04:44:24;7.57;;;4.70;;
27039;SDS011;14589;51.578;7.306;2022-10-31T04:46:52;9.40;;;5.20;;
27039;SDS011;14589;51.578;7.306;2022-10-31T04:49:18;10.55;;;5.30;;
27039;SDS011;14589;51.578;7.306;2022-10-31T04:51:43;9.70;;;5.15;;
27039;SDS011;14589;51.578;7.306;2022-10-31T04:54:09;7.55;;;4.47;;
27039;SDS011;14589;51.578;7.306;2022-10-31T04:56:53;8.23;;;5.40;;
27039;SDS011;14589;51.578;7.306;2022-10-31T04:59:21;9.63;;;5.13;;
27039;SDS011;14589;51.578;7.306;2022-10-31T05:01:50;8.82;;;5.00;;
27039;SDS011;14589;51.578;7.306;2022-10-31T05:04:22;10.27;;;5.10;;
27039;SDS011;14589;51.578;7.306;2022-10-31T05:06:47;8.02;;;5.32;;
27039;SDS011;14589;51.578;7.306;2022-10-31T05:09:13;9.60;;;5.72;;
27039;SDS011;14589;51.578;7.306;2022-10-31T05:11:38;11.25;;;5.43;;
27039;SDS011;14589;51.578;7.306;2022-10-31T05:14:21;10.77;;;5.28;;
27039;SDS011;14589;51.578;7.306;2022-10-31T05:17:05;10.50;;;5.32;;
27039;SDS011;14589;51.578;7.306;2022-10-31T05:19:49;10.73;;;5.22;;
27039;SDS011;14589;51.578;7.306;2022-10-31T05:22:55;10.27;;;4.90;;
27039;SDS011;14589;51.578;7.306;2022-10-31T05:25:23;11.30;;;5.43;;
27039;SDS011;14589;51.578;7.306;2022-10-31T05:27:51;8.73;;;4.80;;
27039;SDS011;14589;51.578;7.306;2022-10-31T05:30:22;11.43;;;5.43;;
27039;SDS011;14589;51.578;7.306;2022-10-31T05:32:50;8.77;;;4.75;;
27039;SDS011;14589;51.578;7.306;2022-10-31T05:35:36;11.98;;;5.13;;
27039;SDS011;14589;51.578;7.306;2022-10-31T05:38:16;10.32;;;5.00;;
27039;SDS011;14589;51.578;7.306;2022-10-31T05:40:42;10.18;;;5.47;;
27039;SDS011;14589;51.578;7.306;2022-10-31T05:43:08;12.15;;;5.20;;
27039;SDS011;14589;51.578;7.306;2022-10-31T05:45:34;10.95;;;4.75;;
27039;SDS011;14589;51.578;7.306;2022-10-31T05:48:02;8.00;;;4.70;;
27039;SDS011;14589;51.578;7.306;2022-10-31T05:51:00;11.68;;;5.70;;
27039;SDS011;14589;51.578;7.306;2022-10-31T05:53:25;9.07;;;5.03;;
27039;SDS011;14589;51.578;7.306;2022-10-31T05:55:53;11.70;;;5.40;;
27039;SDS011;14589;51.578;7.306;2022-10-31T05:58:21;13.73;;;5.70;;
27039;SDS011;14589;51.578;7.306;2022-10-31T06:00:58;9.07;;;5.60;;
27039;SDS011;14589;51.578;7.306;2022-10-31T06:03:24;10.82;;;5.35;;
27039;SDS011;14589;51.578;7.306;2022-10-31T06:05:56;11.68;;;5.35;;
27039;SDS011;14589;51.578;7.306;2022-10-31T06:08:30;10.32;;;5.28;;
27039;SDS011;14589;51.578;7.306;2022-10-31T06:11:00;9.95;;;5.28;;
27039;SDS011;14589;51.578;7.306;2022-10-31T06:14:04;9.52;;;4.97;;
27039;SDS011;14589;51.578;7.306;2022-10-31T06:16:42;8.55;;;4.82;;
27039;SDS011;14589;51.578;7.306;2022-10-31T06:19:27;11.88;;;5.65;;
27039;SDS011;14589;51.578;7.306;2022-10-31T06:21:53;16.10;;;5.50;;
27039;SDS011;14589;51.578;7.306;2022-10-31T06:24:18;8.50;;;5.05;;
27039;SDS011;14589;51.578;7.306;2022-10-31T06:26:53;14.48;;;5.40;;
27039;SDS011;14589;51.578;7.306;2022-10-31T06:29:19;9.65;;;5.80;;
27039;SDS011;14589;51.578;7.306;2022-10-31T06:32:05;12.63;;;5.95;;
27039;SDS011;14589;51.578;7.306;2022-10-31T06:34:36;11.82;;;5.18;;
27039;SDS011;14589;51.578;7.306;2022-10-31T06:37:01;14.15;;;5.35;;
27039;SDS011;14589;51.578;7.306;2022-10-31T06:39:29;12.75;;;5.60;;
27039;SDS011;14589;51.578;7.306;2022-10-31T06:41:55;18.52;;;7.60;;
27039;SDS011;14589;51.578;7.306;2022-10-31T06:44:24;12.20;;;7.50;;
27039;SDS011;14589;51.578;7.306;2022-10-31T06:47:05;15.93;;;7.82;;
27039;SDS011;14589;51.578;7.306;2022-10-31T06:49:49;9.50;;;6.03;;
27039;SDS011;14589;51.578;7.306;2022-10-31T06:52:18;12.50;;;6.13;;
27039;SDS011;14589;51.578;7.306;2022-10-31T06:54:46;16.50;;;6.10;;
27039;SDS011;14589;51.578;7.306;2022-10-31T06:57:12;12.40;;;5.90;;
27039;SDS011;14589;51.578;7.306;2022-10-31T06:59:39;8.48;;;5.35;;
27039;SDS011;14589;51.578;7.306;2022-10-31T07:02:10;20.98;;;6.30;;
27039;SDS011;14589;51.578;7.306;2022-10-31T07:04:39;10.30;;;5.47;;
27039;SDS011;14589;51.578;7.306;2022-10-31T07:07:13;20.35;;;5.93;;
27039;SDS011;14589;51.578;7.306;2022-10-31T07:09:38;14.85;;;5.78;;
27039;SDS011;14589;51.578;7.306;2022-10-31T07:12:04;12.07;;;6.28;;
27039;SDS011;14589;51.578;7.306;2022-10-31T07:14:34;10.55;;;5.53;;
27039;SDS011;14589;51.578;7.306;2022-10-31T07:17:03;10.73;;;5.80;;
27039;SDS011;14589;51.578;7.306;2022-10-31T07:22:06;11.60;;;5.60;;
27039;SDS011;14589;51.578;7.306;2022-10-31T07:24:34;10.40;;;6.07;;
27039;SDS011;14589;51.578;7.306;2022-10-31T07:27:08;11.88;;;5.40;;
27039;SDS011;14589;51.578;7.306;2022-10-31T07:29:35;10.27;;;5.60;;
27039;SDS011;14589;51.578;7.306;2022-10-31T07:32:01;10.70;;;5.55;;
27039;SDS011;14589;51.578;7.306;2022-10-31T07:34:29;11.25;;;5.57;;
27039;SDS011;14589;51.578;7.306;2022-10-31T07:37:12;13.68;;;6.70;;
27039;SDS011;14589;51.578;7.306;2022-10-31T07:39:38;11.48;;;6.43;;
27039;SDS011;14589;51.578;7.306;2022-10-31T07:42:06;13.75;;;6.97;;
27039;SDS011;14589;51.578;7.306;2022-10-31T07:44:33;13.73;;;7.18;;
27039;SDS011;14589;51.578;7.306;2022-10-31T07:47:22;14.20;;;6.80;;
27039;SDS011;14589;51.578;7.306;2022-10-31T07:50:06;13.48;;;7.43;;
27039;SDS011;14589;51.578;7.306;2022-10-31T07:53:09;16.35;;;6.85;;
27039;SDS011;14589;51.578;7.306;2022-10-31T07:55:51;15.15;;;6.60;;
27039;SDS011;14589;51.578;7.306;2022-10-31T07:58:20;13.93;;;7.00;;
27039;SDS011;14589;51.578;7.306;2022-10-31T08:00:51;13.82;;;6.88;;
27039;SDS011;14589;51.578;7.306;2022-10-31T08:03:29;14.63;;;6.80;;
27039;SDS011;14589;51.578;7.306;2022-10-31T08:06:24;12.50;;;6.07;;
27039;SDS011;14589;51.578;7.306;2022-10-31T08:09:07;15.30;;;7.05;;
27039;SDS011;14589;51.578;7.306;2022-10-31T08:11:33;17.45;;;8.07;;
27039;SDS011;14589;51.578;7.306;2022-10-31T08:14:00;17.83;;;7.38;;
27039;SDS011;14589;51.578;7.306;2022-10-31T08:16:26;17.48;;;7.53;;
27039;SDS011;14589;51.578;7.306;2022-10-31T08:19:02;14.93;;;8.63;;
27039;SDS011;14589;51.578;7.306;2022-10-31T08:21:33;16.92;;;7.80;;
27039;SDS011;14589;51.578;7.306;2022-10-31T08:24:02;15.25;;;7.50;;
27039;SDS011;14589;51.578;7.306;2022-10-31T08:26:28;16.00;;;7.97;;
27039;SDS011;14589;51.578;7.306;2022-10-31T08:28:57;15.05;;;7.97;;
27039;SDS011;14589;51.578;7.306;2022-10-31T08:31:26;11.30;;;7.10;;
27039;SDS011;14589;51.578;7.306;2022-10-31T08:34:10;15.45;;;7.97;;
27039;SDS011;14589;51.578;7.306;2022-10-31T08:36:55;17.23;;;7.93;;
27039;SDS011;14589;51.578;7.306;2022-10-31T08:39:27;11.27;;;6.97;;
27039;SDS011;14589;51.578;7.306;2022-10-31T08:41:54;15.75;;;7.80;;
27039;SDS011;14589;51.578;7.306;2022-10-31T08:44:19;12.52;;;6.40;;
27039;SDS011;14589;51.578;7.306;2022-10-31T08:46:46;14.13;;;7.25;;
27039;SDS011;14589;51.578;7.306;2022-10-31T08:49:13;13.27;;;6.30;;
27039;SDS011;14589;51.578;7.306;2022-10-31T08:51:47;11.02;;;6.75;;
27039;SDS011;14589;51.578;7.306;2022-10-31T08:54:13;11.18;;;6.07;;
27039;SDS011;14589;51.578;7.306;2022-10-31T08:56:57;9.57;;;6.63;;
27039;SDS011;14589;51.578;7.306;2022-10-31T08:59:37;12.15;;;6.63;;
27039;SDS011;14589;51.578;7.306;2022-10-31T09:02:21;15.35;;;7.28;;
27039;SDS011;14589;51.578;7.306;2022-10-31T09:04:49;11.32;;;6.57;;
27039;SDS011;14589;51.578;7.306;2022-10-31T09:07:16;14.05;;;7.25;;
27039;SDS011;14589;51.578;7.306;2022-10-31T09:09:42;14.48;;;7.47;;
27039;SDS011;14589;51.578;7.306;2022-10-31T09:12:12;12.43;;;7.07;;
27039;SDS011;14589;51.578;7.306;2022-10-31T09:14:56;14.02;;;7.18;;
27039;SDS011;14589;51.578;7.306;2022-10-31T09:17:30;11.75;;;6.45;;
27039;SDS011;14589;51.578;7.306;2022-10-31T09:20:28;13.40;;;6.22;;
27039;SDS011;14589;51.578;7.306;2022-10-31T09:23:11;13.38;;;6.35;;
27039;SDS011;14589;51.578;7.306;2022-10-31T09:25:38;15.20;;;7.05;;
27039;SDS011;14589;51.578;7.306;2022-10-31T09:28:40;9.05;;;5.57;;
27039;SDS011;14589;51.578;7.306;2022-10-31T09:31:11;18.30;;;6.68;;
27039;SDS011;14589;51.578;7.306;2022-10-31T09:33:59;13.32;;;6.28;;
27039;SDS011;14589;51.578;7.306;2022-10-31T09:36:34;9.60;;;6.05;;
27039;SDS011;14589;51.578;7.306;2022-10-31T09:41:55;11.85;;;6.28;;
27039;SDS011;14589;51.578;7.306;2022-10-31T09:50:36;11.85;;;6.50;;
27039;SDS011;14589;51.578;7.306;2022-10-31T09:56:21;16.90;;;7.10;;
27039;SDS011;14589;51.578;7.306;2022-10-31T09:58:58;13.32;;;7.60;;
27039;SDS011;14589;51.578;7.306;2022-10-31T10:04:59;20.05;;;9.30;;
27039;SDS011;14589;51.578;7.306;2022-10-31T10:07:54;19.17;;;9.05;;
27039;SDS011;14589;51.578;7.306;2022-10-31T10:30:20;29.02;;;11.80;;
27039;SDS011;14589;51.578;7.306;2022-10-31T10:38:23;31.67;;;12.45;;
27039;SDS011;14589;51.578;7.306;2022-10-31T10:43:38;27.00;;;11.63;;
27039;SDS011;14589;51.578;7.306;2022-10-31T10:54:39;20.92;;;10.52;;
27039;SDS011;14589;51.578;7.306;2022-10-31T11:00:45;21.95;;;10.52;;
27039;SDS011;14589;51.578;7.306;2022-10-31T11:03:15;18.45;;;9.13;;
27039;SDS011;14589;51.578;7.306;2022-10-31T11:05:49;21.77;;;10.18;;
27039;SDS011;14589;51.578;7.306;2022-10-31T11:08:25;19.33;;;9.55;;
27039;SDS011;14589;51.578;7.306;2022-10-31T11:11:02;29.15;;;12.18;;
27039;SDS011;14589;51.578;7.306;2022-10-31T11:13:29;21.35;;;11.20;;
27039;SDS011;14589;51.578;7.306;2022-10-31T11:18:26;22.55;;;10.77;;
27039;SDS011;14589;51.578;7.306;2022-10-31T11:20:55;24.95;;;10.00;;
27039;SDS011;14589;51.578;7.306;2022-10-31T11:23:24;20.83;;;9.70;;
27039;SDS011;14589;51.578;7.306;2022-10-31T11:25:57;29.08;;;12.80;;
27039;SDS011;14589;51.578;7.306;2022-10-31T11:28:27;24.50;;;10.43;;
27039;SDS011;14589;51.578;7.306;2022-10-31T11:30:58;24.83;;;11.73;;
27039;SDS011;14589;51.578;7.306;2022-10-31T11:33:35;18.88;;;8.93;;
27039;SDS011;14589;51.578;7.306;2022-10-31T11:36:09;20.20;;;9.70;;
27039;SDS011;14589;51.578;7.306;2022-10-31T11:38:41;25.33;;;10.88;;
27039;SDS011;14589;51.578;7.306;2022-10-31T11:46:55;23.40;;;11.05;;
27039;SDS011;14589;51.578;7.306;2022-10-31T11:49:39;28.05;;;11.55;;
27039;SDS011;14589;51.578;7.306;2022-10-31T11:52:30;26.60;;;9.90;;
27039;SDS011;14589;51.578;7.306;2022-10-31T12:00:27;23.00;;;9.43;;
27039;SDS011;14589;51.578;7.306;2022-10-31T12:05:35;22.80;;;10.57;;
27039;SDS011;14589;51.578;7.306;2022-10-31T12:08:02;26.48;;;11.40;;
27039;SDS011;14589;51.578;7.306;2022-10-31T12:10:38;34.80;;;12.05;;
27039;SDS011;14589;51.578;7.306;2022-10-31T12:15:50;20.38;;;9.63;;
27039;SDS011;14589;51.578;7.306;2022-10-31T12:26:23;21.38;;;10.18;;
27039;SDS011;14589;51.578;7.306;2022-10-31T12:58:51;16.88;;;8.40;;
27039;SDS011;14589;51.578;7.306;2022-10-31T13:01:33;26.00;;;9.73;;
27039;SDS011;14589;51.578;7.306;2022-10-31T13:06:50;21.88;;;9.15;;
27039;SDS011;14589;51.578;7.306;2022-10-31T13:09:20;29.83;;;10.50;;
27039;SDS011;14589;51.578;7.306;2022-10-31T13:11:51;19.45;;;9.02;;
27039;SDS011;14589;51.578;7.306;2022-10-31T13:14:28;19.77;;;8.48;;
27039;SDS011;14589;51.578;7.306;2022-10-31T13:17:19;13.45;;;8.00;;
27039;SDS011;14589;51.578;7.306;2022-10-31T13:19:48;16.02;;;7.88;;
27039;SDS011;14589;51.578;7.306;2022-10-31T13:22:22;22.95;;;9.15;;
27039;SDS011;14589;51.578;7.306;2022-10-31T13:24:55;21.50;;;8.73;;
27039;SDS011;14589;51.578;7.306;2022-10-31T13:27:25;17.20;;;8.68;;
27039;SDS011;14589;51.578;7.306;2022-10-31T13:30:03;16.50;;;7.60;;
27039;SDS011;14589;51.578;7.306;2022-10-31T13:32:40;17.17;;;8.95;;
27039;SDS011;14589;51.578;7.306;2022-10-31T13:35:12;18.55;;;8.95;;
27039;SDS011;14589;51.578;7.306;2022-10-31T13:37:48;23.75;;;10.75;;
27039;SDS011;14589;51.578;7.306;2022-10-31T13:45:52;17.02;;;8.32;;
27039;SDS011;14589;51.578;7.306;2022-10-31T13:51:04;24.08;;;9.13;;
27039;SDS011;14589;51.578;7.306;2022-10-31T13:53:40;19.27;;;8.65;;
27039;SDS011;14589;51.578;7.306;2022-10-31T13:59:30;16.92;;;7.70;;
27039;SDS011;14589;51.578;7.306;2022-10-31T14:01:33;19.70;;;8.27;;
27039;SDS011;14589;51.578;7.306;2022-10-31T14:04:15;15.48;;;8.13;;
27039;SDS011;14589;51.578;7.306;2022-10-31T14:09:19;19.60;;;8.88;;
27039;SDS011;14589;51.578;7.306;2022-10-31T14:15:54;30.35;;;11.75;;
27039;SDS011;14589;51.578;7.306;2022-10-31T14:18:35;22.55;;;9.38;;
27039;SDS011;14589;51.578;7.306;2022-10-31T14:23:54;24.90;;;11.27;;
27039;SDS011;14589;51.578;7.306;2022-10-31T14:28:52;29.60;;;11.85;;
27039;SDS011;14589;51.578;7.306;2022-10-31T14:31:29;30.30;;;11.53;;
27039;SDS011;14589;51.578;7.306;2022-10-31T14:42:32;16.92;;;8.90;;
27039;SDS011;14589;51.578;7.306;2022-10-31T14:53:18;21.13;;;9.90;;
27039;SDS011;14589;51.578;7.306;2022-10-31T14:55:55;21.92;;;9.25;;
27039;SDS011;14589;51.578;7.306;2022-10-31T14:58:30;25.10;;;10.75;;
27039;SDS011;14589;51.578;7.306;2022-10-31T15:01:00;20.83;;;8.93;;
27039;SDS011;14589;51.578;7.306;2022-10-31T15:03:38;20.55;;;9.25;;
27039;SDS011;14589;51.578;7.306;2022-10-31T15:06:09;20.88;;;10.07;;
27039;SDS011;14589;51.578;7.306;2022-10-31T15:08:40;18.73;;;8.10;;
27039;SDS011;14589;51.578;7.306;2022-10-31T15:11:17;17.77;;;8.45;;
27039;SDS011;14589;51.578;7.306;2022-10-31T15:16:14;24.77;;;10.18;;
27039;SDS011;14589;51.578;7.306;2022-10-31T15:21:43;23.10;;;11.00;;
27039;SDS011;14589;51.578;7.306;2022-10-31T15:24:13;24.00;;;10.27;;
27039;SDS011;14589;51.578;7.306;2022-10-31T15:26:44;26.95;;;11.63;;
27039;SDS011;14589;51.578;7.306;2022-10-31T15:29:17;17.17;;;8.35;;
27039;SDS011;14589;51.578;7.306;2022-10-31T15:32:15;29.73;;;9.90;;
27039;SDS011;14589;51.578;7.306;2022-10-31T15:34:51;25.70;;;10.07;;
27039;SDS011;14589;51.578;7.306;2022-10-31T15:37:21;20.02;;;9.00;;
27039;SDS011;14589;51.578;7.306;2022-10-31T15:39:50;17.80;;;9.32;;
27039;SDS011;14589;51.578;7.306;2022-10-31T15:44:58;26.98;;;12.23;;
27039;SDS011;14589;51.578;7.306;2022-10-31T15:47:26;26.35;;;11.00;;
27039;SDS011;14589;51.578;7.306;2022-10-31T15:49:59;22.55;;;10.43;;
27039;SDS011;14589;51.578;7.306;2022-10-31T15:55:02;25.05;;;10.10;;
27039;SDS011;14589;51.578;7.306;2022-10-31T15:57:30;22.08;;;10.57;;
27039;SDS011;14589;51.578;7.306;2022-10-31T15:59:56;24.20;;;11.23;;
27039;SDS011;14589;51.578;7.306;2022-10-31T16:02:23;31.30;;;10.73;;
27039;SDS011;14589;51.578;7.306;2022-10-31T16:04:52;26.25;;;11.32;;
27039;SDS011;14589;51.578;7.306;2022-10-31T16:07:19;23.73;;;10.50;;
27039;SDS011;14589;51.578;7.306;2022-10-31T16:12:35;27.25;;;12.05;;
27039;SDS011;14589;51.578;7.306;2022-10-31T16:15:02;24.17;;;11.23;;
27039;SDS011;14589;51.578;7.306;2022-10-31T16:17:29;30.90;;;12.60;;
27039;SDS011;14589;51.578;7.306;2022-10-31T16:19:58;24.20;;;11.57;;
27039;SDS011;14589;51.578;7.306;2022-10-31T16:22:27;25.77;;;11.48;;
27039;SDS011;14589;51.578;7.306;2022-10-31T16:25:04;31.45;;;13.80;;
27039;SDS011;14589;51.578;7.306;2022-10-31T16:27:37;31.55;;;13.05;;
27039;SDS011;14589;51.578;7.306;2022-10-31T16:30:26;31.05;;;12.32;;
27039;SDS011;14589;51.578;7.306;2022-10-31T16:32:53;25.17;;;10.82;;
27039;SDS011;14589;51.578;7.306;2022-10-31T16:35:25;19.85;;;9.23;;
27039;SDS011;14589;51.578;7.306;2022-10-31T16:37:52;19.52;;;9.38;;
27039;SDS011;14589;51.578;7.306;2022-10-31T16:40:18;22.52;;;9.60;;
27039;SDS011;14589;51.578;7.306;2022-10-31T16:42:44;23.08;;;9.13;;
27039;SDS011;14589;51.578;7.306;2022-10-31T16:45:13;20.67;;;9.60;;
27039;SDS011;14589;51.578;7.306;2022-10-31T16:50:17;16.05;;;8.80;;
27039;SDS011;14589;51.578;7.306;2022-10-31T16:52:44;25.83;;;10.52;;
27039;SDS011;14589;51.578;7.306;2022-10-31T16:55:12;21.25;;;9.10;;
27039;SDS011;14589;51.578;7.306;2022-10-31T16:57:39;19.75;;;8.50;;
27039;SDS011;14589;51.578;7.306;2022-10-31T17:00:12;25.02;;;11.50;;
27039;SDS011;14589;51.578;7.306;2022-10-31T17:02:38;37.65;;;18.25;;
27039;SDS011;14589;51.578;7.306;2022-10-31T17:05:20;40.55;;;19.02;;
27039;SDS011;14589;51.578;7.306;2022-10-31T17:07:47;35.05;;;16.25;;
27039;SDS011;14589;51.578;7.306;2022-10-31T17:10:13;34.85;;;15.75;;
27039;SDS011;14589;51.578;7.306;2022-10-31T17:12:42;27.25;;;12.15;;
27039;SDS011;14589;51.578;7.306;2022-10-31T17:15:16;21.42;;;10.95;;
27039;SDS011;14589;51.578;7.306;2022-10-31T17:17:44;23.77;;;11.02;;
27039;SDS011;14589;51.578;7.306;2022-10-31T17:22:45;20.83;;;10.30;;
27039;SDS011;14589;51.578;7.306;2022-10-31T17:25:21;21.52;;;9.85;;
27039;SDS011;14589;51.578;7.306;2022-10-31T17:27:48;18.95;;;9.05;;
27039;SDS011;14589;51.578;7.306;2022-10-31T17:30:15;17.90;;;10.25;;
27039;SDS011;14589;51.578;7.306;2022-10-31T17:32:45;20.48;;;10.50;;
27039;SDS011;14589;51.578;7.306;2022-10-31T17:35:12;22.27;;;11.13;;
27039;SDS011;14589;51.578;7.306;2022-10-31T17:37:38;23.38;;;10.90;;
27039;SDS011;14589;51.578;7.306;2022-10-31T17:40:07;20.48;;;9.90;;
27039;SDS011;14589;51.578;7.306;2022-10-31T17:42:34;24.17;;;10.90;;
27039;SDS011;14589;51.578;7.306;2022-10-31T17:44:59;20.30;;;9.98;;
27039;SDS011;14589;51.578;7.306;2022-10-31T17:47:26;29.10;;;12.18;;
27039;SDS011;14589;51.578;7.306;2022-10-31T17:49:55;21.02;;;10.10;;
27039;SDS011;14589;51.578;7.306;2022-10-31T17:52:22;20.30;;;9.55;;
27039;SDS011;14589;51.578;7.306;2022-10-31T17:54:56;21.77;;;10.30;;
27039;SDS011;14589;51.578;7.306;2022-10-31T17:57:22;32.90;;;13.98;;
27039;SDS011;14589;51.578;7.306;2022-10-31T17:59:47;30.80;;;11.85;;
27039;SDS011;14589;51.578;7.306;2022-10-31T18:02:13;20.27;;;10.73;;
27039;SDS011;14589;51.578;7.306;2022-10-31T18:04:38;19.52;;;10.00;;
27039;SDS011;14589;51.578;7.306;2022-10-31T18:07:05;18.73;;;9.27;;
27039;SDS011;14589;51.578;7.306;2022-10-31T18:09:32;19.50;;;9.50;;
27039;SDS011;14589;51.578;7.306;2022-10-31T18:12:01;27.58;;;11.57;;
27039;SDS011;14589;51.578;7.306;2022-10-31T18:14:26;20.33;;;10.05;;
27039;SDS011;14589;51.578;7.306;2022-10-31T18:16:53;16.50;;;8.65;;
27039;SDS011;14589;51.578;7.306;2022-10-31T18:19:19;20.45;;;9.48;;
27039;SDS011;14589;51.578;7.306;2022-10-31T18:21:44;19.98;;;9.65;;
27039;SDS011;14589;51.578;7.306;2022-10-31T18:24:11;20.48;;;9.55;;
27039;SDS011;14589;51.578;7.306;2022-10-31T18:26:37;22.65;;;10.73;;
27039;SDS011;14589;51.578;7.306;2022-10-31T18:29:04;18.90;;;8.73;;
27039;SDS011;14589;51.578;7.306;2022-10-31T18:31:34;19.33;;;9.82;;
27039;SDS011;14589;51.578;7.306;2022-10-31T18:34:00;18.17;;;9.82;;
27039;SDS011;14589;51.578;7.306;2022-10-31T18:36:25;16.38;;;7.53;;
27039;SDS011;14589;51.578;7.306;2022-10-31T18:41:24;17.92;;;8.32;;